Portada
METAR-TAF:

METAR-TAF

Aeroports :

Mardin, Turquia

latitud: 37-13-58N, longitud: 40-38-26E, altitud: 527 m

Observació

L'informe es va fer fa 8 hores i 49 minuts, a les 16:50 UTC
Vent 1 kt amb direcció variable
Temperatura 23°C
Humitat 36%
Pressió 1014 hPa
Visibilitat 10 km o més
Escasses núvols a una alçada de 4000 ft
Núvols disperses a una alçada de 10000 ft

METAR: LTCR 171650Z VRB01KT 9999 FEW040 SCT100 23/07 Q1014

Hora: 04:39 (01:39 UTC)

Pronòstic

L'informe es va fer fa 11 hores i 59 minuts, a les 13:40 UTC
Pronòstic vàlid del 17 a les 15 UTC al 17 a les 24 UTC
Vent 12 kt del Nord/Nord-Oest
Visibilitat 10 km o més
Núvols disperses a una alçada de 4000 ft
Núvols disperses a una alçada de 10000 ft
Evolucionant progressivament
l' 17 a les 18 UTC al 17 a les 20 UTC
Visibilitat 10 km o més
sense núvols per sota de 1500 mi sense presència de cumulonimbus.

TAF: LTCR 171340Z 1715/1724 33012KT 9999 SCT040 SCT100 BECMG 1718/1720 CAVOK

Observacions i pronòstics meteorològics de més de 4000 aeroports (METAR i TAF).

Les estacions disponibles són els punts grocs i vermells al mapa.

Posi el ratolí al punt desitjat per veure el nom de l'estació.

Feu clic per veure les observacions i els pronòstics meteorològics.

Per canviar el mapa: feu clic els botons verds amb una creu de color negre per apropar; al botó verd amb un guió per allunyar la imatge; o en les fletxes verdes per a mapes adjacents.


METAR-TAF: